Time;durP1;ratioP1;P1;durP2;ratioP2;P2;SDS_P1;SDS_P2;PMS_P1;PMS_P2;Temp;Humidity;BMP_temperature;BMP_pressure;BME280_temperature;BME280_humidity;BME280_pressure;Samples;Min_cycle;Max_cycle;Signal;HPM_P1;HPM_P2
2022/08/05 00:04:27;;;;;;;2.28;1.58;;;;;;;19.64;100.00;101180.91;20979147;28;20052;-80
2022/08/05 00:14:29;;;;;;;1.20;1.10;;;;;;;19.68;100.00;101212.06;21018963;28;20049;-80
2022/08/05 00:24:32;;;;;;;1.27;1.17;;;;;;;19.51;100.00;101179.34;20884858;28;20139;-80
2022/08/05 00:34:34;;;;;;;2.15;1.60;;;;;;;19.68;100.00;101220.16;20887788;28;20049;-80
2022/08/05 00:44:55;;;;;;;1.23;1.13;;;;;;;19.47;100.00;101233.75;21041955;28;20048;-80
2022/08/05 00:54:57;;;;;;;1.77;1.40;;;;;;;19.67;100.00;101283.28;20924020;28;20049;-80
2022/08/05 01:04:59;;;;;;;1.58;1.30;;;;;;;19.65;100.00;101261.78;20900170;28;20057;-80
2022/08/05 01:15:07;;;;;;;1.25;1.13;;;;;;;19.58;100.00;101240.91;21045227;28;20536;-80
2022/08/05 01:26:14;;;;;;;1.40;1.27;;;;;;;19.63;100.00;101258.38;21017087;28;20543;-80
2022/08/05 01:36:17;;;;;;;1.88;1.15;;;;;;;19.57;100.00;101226.53;20951710;28;20044;-80
2022/08/05 01:46:22;;;;;;;1.65;1.25;;;;;;;19.63;100.00;101242.16;20877339;28;20049;-80
2022/08/05 01:56:44;;;;;;;1.60;1.30;;;;;;;19.31;100.00;101197.38;20892747;28;20074;-80
2022/08/05 02:07:06;;;;;;;1.88;1.38;;;;;;;19.56;100.00;101238.31;20978584;28;20083;-80
2022/08/05 02:17:16;;;;;;;1.07;0.97;;;;;;;19.24;100.00;101186.25;20961950;28;20068;-80
2022/08/05 02:27:39;;;;;;;2.03;1.27;;;;;;;19.62;100.00;101247.72;20936371;28;20060;-80
2022/08/05 02:38:00;;;;;;;1.30;1.20;;;;;;;19.61;100.00;101243.31;20940676;28;20044;-80
2022/08/05 02:48:03;;;;;;;1.38;1.25;;;;;;;19.54;100.00;101261.91;21001438;28;20068;-80
2022/08/05 02:58:15;;;;;;;1.15;1.05;;;;;;;19.54;100.00;101261.91;20871247;28;20040;-80
2022/08/05 03:08:17;;;;;;;2.58;1.20;;;;;;;19.59;100.00;101281.25;20911647;28;20049;-80
2022/08/05 03:18:30;;;;;;;0.90;0.90;;;;;;;19.59;100.00;101288.53;20874742;28;20085;-80
2022/08/05 03:28:32;;;;;;;1.70;1.08;;;;;;;19.59;100.00;101296.63;20945262;28;20475;-80
2022/08/05 03:38:39;;;;;;;1.20;1.08;;;;;;;19.58;100.00;101276.00;21000515;28;20058;-80
2022/08/05 03:48:43;;;;;;;1.77;1.27;;;;;;;19.58;100.00;101257.94;20962611;28;20083;-80
2022/08/05 03:58:47;;;;;;;1.63;1.10;;;;;;;19.58;100.00;101262.50;20970671;28;20051;-80
2022/08/05 04:08:52;;;;;;;0.88;0.88;;;;;;;19.57;100.00;101250.84;21044650;28;20097;-80
2022/08/05 04:18:53;;;;;;;1.17;1.08;;;;;;;19.56;100.00;101260.81;20929556;28;20040;-80
2022/08/05 04:28:59;;;;;;;1.30;1.20;;;;;;;19.41;100.00;101227.06;20885738;28;20378;-80
2022/08/05 04:39:07;;;;;;;1.30;1.20;;;;;;;19.35;100.00;101204.19;20993179;28;20481;-80
2022/08/05 04:49:09;;;;;;;1.40;1.10;;;;;;;19.55;100.00;101250.13;20991355;28;20132;-80
2022/08/05 04:59:15;;;;;;;1.30;1.20;;;;;;;19.54;100.00;101257.38;20907459;28;20071;-80
2022/08/05 05:09:37;;;;;;;1.58;1.10;;;;;;;19.40;100.00;101238.84;20881957;28;20060;-80
2022/08/05 05:19:39;;;;;;;1.35;1.10;;;;;;;19.45;100.00;101269.03;20882191;28;20048;-80
2022/08/05 05:29:44;;;;;;;1.63;1.00;;;;;;;19.49;100.00;101265.06;20902470;28;20085;-80
2022/08/05 05:40:06;;;;;;;1.20;1.10;;;;;;;19.53;100.00;101271.00;20963865;28;20520;-80
2022/08/05 05:50:09;;;;;;;1.48;1.25;;;;;;;19.52;100.00;101264.78;20961371;28;20052;-80
2022/08/05 06:00:19;;;;;;;1.40;1.30;;;;;;;19.53;100.00;101289.91;20977408;28;20044;-80
2022/08/05 06:10:28;;;;;;;2.13;1.10;;;;;;;19.53;100.00;101279.13;21043479;28;20456;-80
2022/08/05 06:20:37;;;;;;;1.20;1.10;;;;;;;19.52;100.00;101291.78;21044103;28;20403;-80
2022/08/05 06:30:38;;;;;;;1.50;1.13;;;;;;;19.52;100.00;101302.56;20942635;28;20049;-77
2022/08/05 06:40:42;;;;;;;1.80;1.15;;;;;;;19.52;100.00;101302.56;20926045;28;20072;-77
2022/08/05 06:50:45;;;;;;;2.20;1.10;;;;;;;19.56;100.00;101312.09;20914611;28;20048;-77
2022/08/05 07:00:50;;;;;;;1.95;1.10;;;;;;;19.57;100.00;101321.06;20924830;28;20056;-79
2022/08/05 07:10:52;;;;;;;5.80;1.55;;;;;;;19.59;100.00;101323.63;20913336;28;20063;-77
2022/08/05 07:20:54;;;;;;;2.42;1.48;;;;;;;19.60;100.00;101330.75;20917979;28;20041;-77
2022/08/05 07:30:56;;;;;;;1.42;1.20;;;;;;;19.60;100.00;101338.84;20924988;28;20049;-77
2022/08/05 07:40:57;;;;;;;2.63;1.20;;;;;;;19.59;100.00;101337.13;20900510;28;20049;-77
2022/08/05 07:51:17;;;;;;;1.73;1.20;;;;;;;19.60;100.00;101339.69;20924997;28;20048;-76
2022/08/05 08:01:36;;;;;;;6.03;1.50;;;;;;;19.61;100.00;101348.66;20923005;28;20489;-76
2022/08/05 08:11:52;;;;;;;2.03;1.30;;;;;;;19.42;100.00;101318.75;20905482;28;20439;-75
2022/08/05 08:22:07;;;;;;;4.40;1.25;;;;;;;19.62;100.00;101328.75;20916414;28;20053;-78
2022/08/05 08:32:09;;;;;;;3.72;1.63;;;;;;;19.45;100.00;101323.03;20920124;28;20055;-78
2022/08/05 08:42:11;;;;;;;2.50;1.52;;;;;;;19.62;100.00;101362.00;20901325;28;20417;-77
2022/08/05 08:52:34;;;;;;;1.90;1.30;;;;;;;19.62;100.00;101375.50;20918594;28;20048;-76
2022/08/05 09:02:38;;;;;;;2.30;1.52;;;;;;;19.58;100.00;101386.75;20916885;28;20071;-78
2022/08/05 09:12:40;;;;;;;3.42;1.40;;;;;;;19.62;100.00;101382.78;20904414;28;20061;-78
2022/08/05 09:23:01;;;;;;;2.42;1.00;;;;;;;19.13;100.00;101302.41;20885301;28;20060;-77
2022/08/05 09:33:08;;;;;;;1.80;1.10;;;;;;;19.37;100.00;101341.72;20906838;28;20053;-78
2022/08/05 09:43:25;;;;;;;1.58;1.02;;;;;;;19.61;100.00;101392.69;20881041;28;20195;-78
2022/08/05 09:53:49;;;;;;;1.65;1.10;;;;;;;19.61;100.00;101398.09;20881754;28;20064;-78
2022/08/05 10:04:02;;;;;;;1.75;1.08;;;;;;;19.53;100.00;101401.50;20882461;28;20052;-78
2022/08/05 10:14:29;;;;;;;1.52;1.00;;;;;;;19.60;100.00;101407.19;20888060;28;20049;-78
2022/08/05 10:24:32;;;;;;;1.45;0.80;;;;;;;19.60;100.00;101411.75;20915507;28;20072;-78
2022/08/05 10:34:40;;;;;;;2.70;1.20;;;;;;;19.47;100.00;101396.66;20907653;28;20053;-79
2022/08/05 10:44:45;;;;;;;1.38;0.80;;;;;;;19.40;100.00;101390.03;20916219;28;20098;-78
2022/08/05 10:55:01;;;;;;;1.33;0.90;;;;;;;19.60;100.00;101427.97;20913705;28;20071;-79
2022/08/05 11:05:07;;;;;;;;;;;;;;;19.60;99.91;101444.16;20906880;28;20106;-79
2022/08/05 11:15:27;;;;;;;1.67;0.90;;;;;;;19.60;99.36;101455.81;20907762;28;19954;-79
2022/08/05 11:26:18;;;;;;;1.38;0.80;;;;;;;19.59;98.58;101469.47;20901983;28;20505;-79
2022/08/05 11:36:43;;;;;;;1.52;0.70;;;;;;;19.59;97.72;101481.09;20882141;28;20052;-78
2022/08/05 11:46:51;;;;;;;0.95;0.68;;;;;;;19.59;97.37;101504.59;20886381;28;20231;-78
2022/08/05 11:57:12;;;;;;;0.63;0.50;;;;;;;19.01;96.13;101430.31;20887161;28;20053;-78
2022/08/05 12:07:32;;;;;;;1.75;0.60;;;;;;;19.59;95.53;101520.78;20895717;28;20052;-78
2022/08/05 12:17:54;;;;;;;0.80;0.60;;;;;;;19.59;94.70;101537.00;20896262;28;20078;-80
2022/08/05 12:28:04;;;;;;;0.65;0.43;;;;;;;19.61;96.67;101559.31;20908584;28;20075;-79
2022/08/05 12:38:06;;;;;;;1.40;0.38;;;;;;;19.49;96.69;101550.41;20894438;28;20121;-78
2022/08/05 12:48:14;;;;;;;1.60;0.40;;;;;;;19.43;95.62;101551.78;20886269;28;20057;-78
2022/08/05 12:58:32;;;;;;;2.72;0.50;;;;;;;19.58;94.56;101587.44;20891850;28;20060;-78
2022/08/05 13:08:54;;;;;;;1.85;0.47;;;;;;;19.61;94.17;101605.25;20914059;28;20048;-79
2022/08/05 13:19:00;;;;;;;1.75;0.40;;;;;;;19.50;93.89;101601.63;20903958;28;20055;-78
2022/08/05 13:29:03;;;;;;;0.85;0.40;;;;;;;19.69;93.76;101651.34;20912514;28;20078;-78
2022/08/05 13:39:06;;;;;;;0.68;0.60;;;;;;;19.68;93.38;101663.16;20901427;28;20057;-78
2022/08/05 13:49:28;;;;;;;1.23;0.40;;;;;;;19.45;93.23;101629.97;20907332;28;20052;-78
2022/08/05 13:59:36;;;;;;;0.60;0.40;;;;;;;19.68;92.86;101682.06;20915038;28;20087;-78
2022/08/05 14:09:58;;;;;;;1.02;0.35;;;;;;;19.67;92.58;101693.84;20926648;28;20049;-79
2022/08/05 14:19:59;;;;;;;0.45;0.30;;;;;;;19.68;92.43;101711.78;20923959;28;20045;-78
2022/08/05 14:30:08;;;;;;;0.52;0.30;;;;;;;19.68;92.10;101717.19;20908470;28;20052;-78
2022/08/05 14:40:21;;;;;;;0.20;0.20;;;;;;;19.66;91.96;101717.28;20913581;28;20049;-78
2022/08/05 14:50:25;;;;;;;0.70;0.40;;;;;;;19.66;91.78;101725.38;20897359;28;20659;-79
2022/08/05 15:00:26;;;;;;;0.30;0.30;;;;;;;19.66;91.72;101751.56;20905295;28;20123;-78
2022/08/05 15:10:30;;;;;;;0.35;0.30;;;;;;;19.53;91.22;101720.19;20888587;28;20056;-78
2022/08/05 15:20:32;;;;;;;0.57;0.30;;;;;;;19.48;91.41;101711.59;20888808;28;20055;-77
2022/08/05 15:30:35;;;;;;;0.70;0.30;;;;;;;19.52;90.94;101731.09;20897770;28;20044;-77
2022/08/05 15:40:38;;;;;;;0.70;0.25;;;;;;;19.64;90.19;101753.53;20899198;28;21073;-78
2022/08/05 15:51:00;;;;;;;0.60;0.30;;;;;;;19.48;88.93;101727.81;20896177;28;20048;-78
2022/08/05 16:01:11;;;;;;;0.93;0.30;;;;;;;19.41;88.73;101726.56;20884310;28;20049;-79
2022/08/05 16:11:18;;;;;;;0.57;0.20;;;;;;;19.59;88.77;101764.72;20901555;28;20056;-80
2022/08/05 16:21:40;;;;;;;2.63;0.80;;;;;;;19.59;88.15;101771.97;20894209;28;20056;-79
2022/08/05 16:32:01;;;;;;;2.25;1.48;;;;;;;19.43;87.81;101757.00;20885510;28;20213;-78
2022/08/05 16:42:05;;;;;;;2.53;1.10;;;;;;;19.57;87.40;101796.38;20891680;28;20057;-80
2022/08/05 16:52:26;;;;;;;2.78;1.15;;;;;;;19.56;87.10;101800.94;20891777;28;20064;-80
2022/08/05 17:02:34;;;;;;;3.92;1.40;;;;;;;19.58;87.07;101805.38;20904924;28;20048;-80
2022/08/05 17:12:35;;;;;;;2.85;1.40;;;;;;;19.57;87.49;101801.78;20897993;28;20095;-80
2022/08/05 17:22:53;;;;;;;3.70;1.20;;;;;;;19.50;87.29;101812.25;20900586;28;20040;-78
2022/08/05 17:32:55;;;;;;;3.25;1.33;;;;;;;19.53;88.68;101816.53;20887977;28;20397;-78
2022/08/05 17:42:57;;;;;;;10.00;2.83;;;;;;;19.53;91.35;101822.81;20895327;28;20056;-78
2022/08/05 17:53:03;;;;;;;5.28;2.67;;;;;;;19.45;92.25;101817.19;20886966;28;20069;-78
2022/08/05 18:03:05;;;;;;;5.15;1.85;;;;;;;19.64;92.22;101856.19;20911063;28;20454;-80
2022/08/05 18:13:08;;;;;;;4.93;1.75;;;;;;;19.61;91.98;101867.25;20912784;28;20133;-78
2022/08/05 18:23:13;;;;;;;3.80;1.58;;;;;;;19.47;91.61;101854.84;20925268;28;20051;-79
2022/08/05 18:33:16;;;;;;;7.25;1.67;;;;;;;19.51;91.19;101878.78;20894237;28;20118;-79
2022/08/05 18:43:23;;;;;;;4.78;1.75;;;;;;;19.68;90.62;101923.34;20906085;28;20045;-80
2022/08/05 18:53:32;;;;;;;4.32;1.40;;;;;;;19.68;90.09;101922.47;20919360;28;20055;-77
2022/08/05 19:03:43;;;;;;;3.15;1.27;;;;;;;19.64;89.54;101932.66;20967606;28;20037;-77
2022/08/05 19:13:56;;;;;;;4.18;1.10;;;;;;;19.62;88.41;101944.59;20987306;28;20059;-77
2022/08/05 19:24:04;;;;;;;1.85;1.02;;;;;;;19.40;88.01;101930.06;20985195;28;20102;-77
2022/08/05 19:34:13;;;;;;;2.80;1.20;;;;;;;19.56;87.51;101970.22;20984603;28;20052;-77
2022/08/05 19:44:19;;;;;;;2.05;0.90;;;;;;;19.55;87.54;101988.28;21037912;28;20355;-77
2022/08/05 19:54:20;;;;;;;2.13;1.10;;;;;;;19.54;87.36;101997.38;21058809;28;20513;-77
2022/08/05 20:04:32;;;;;;;2.13;0.80;;;;;;;19.54;86.83;102012.72;20985335;28;20060;-77
2022/08/05 20:14:34;;;;;;;1.58;0.88;;;;;;;19.52;86.56;102020.94;20980672;28;20051;-77
2022/08/05 20:24:35;;;;;;;2.15;1.08;;;;;;;19.47;86.63;102019.56;20969580;28;20106;-77
2022/08/05 20:34:38;;;;;;;3.10;1.13;;;;;;;19.50;86.40;102039.13;20969421;28;20051;-77
2022/08/05 20:44:41;;;;;;;1.55;0.88;;;;;;;19.49;86.30;102055.44;21044690;28;20138;-77
2022/08/05 20:54:44;;;;;;;1.48;0.80;;;;;;;19.49;86.44;102063.53;21051262;28;20052;-77
2022/08/05 21:05:04;;;;;;;2.08;1.10;;;;;;;19.47;86.41;102074.47;21050253;28;20156;-77
2022/08/05 21:15:09;;;;;;;1.33;0.77;;;;;;;19.42;86.24;102080.22;21048855;28;20492;-77
2022/08/05 21:25:11;;;;;;;0.98;0.60;;;;;;;19.45;86.40;102089.94;21049654;28;20059;-77
2022/08/05 21:35:13;;;;;;;1.25;0.60;;;;;;;19.45;86.32;102089.94;21032905;28;20497;-77
2022/08/05 21:45:30;;;;;;;1.50;0.73;;;;;;;19.44;86.16;102090.03;20882973;28;20060;-77
2022/08/05 21:55:52;;;;;;;0.98;0.57;;;;;;;19.42;86.18;102095.53;20881609;28;20044;-77
2022/08/05 22:06:10;;;;;;;1.63;0.57;;;;;;;19.16;85.95;102051.63;20880803;28;20053;-77
2022/08/05 22:16:12;;;;;;;1.30;0.85;;;;;;;19.40;85.85;102092.97;20878546;28;20037;-77
2022/08/05 22:36:54;;;;;;;1.10;0.55;;;;;;;19.31;85.85;102098.19;20942376;28;20147;-77
2022/08/05 22:46:56;;;;;;;1.20;0.60;;;;;;;19.37;85.75;102119.34;21044112;28;20093;-77
2022/08/05 22:56:57;;;;;;;1.23;0.60;;;;;;;19.20;85.78;102093.59;21043851;28;20054;-77
2022/08/05 23:06:59;;;;;;;1.10;0.50;;;;;;;19.36;85.58;102128.41;21042001;28;20559;-77
2022/08/05 23:27:33;;;;;;;0.55;0.50;;;;;;;19.16;85.36;102122.69;21042654;28;20047;-77
2022/08/05 23:37:55;;;;;;;0.43;0.35;;;;;;;19.33;85.16;102155.66;21026186;28;20465;-77
2022/08/05 23:47:56;;;;;;;1.02;0.70;;;;;;;19.33;84.96;102161.06;21039342;28;20110;-77
2022/08/05 23:58:03;;;;;;;0.93;0.50;;;;;;;19.31;85.07;102168.41;21056762;28;20040;-77
